Flight Track Log - Related Links

Times and Time Zones

All times are in EDT time to prevent confusion due to time zone crossing. See the N20EW flight status page for this flight to view local times or setup timezone preferences in your user account.

Time Position Orientation Groundspeed Altitude Reporting Facility
EDT Latitude Longitude Course Direction KTS MPH feet Rate Location/Type
Wed 02:36:48 PM 40.4217 -85.9647 117° Southeast 189 217 6,900  Level Chicago Center
Wed 02:38:18 PM 40.3861 -85.8750 117° Southeast 192 221 9,600 1,726 Climbing Chicago Center
Wed 02:39:14 PM 40.3558 -85.8283 130° Southeast 202 232 11,100 1,627 Climbing Indianapolis Center
Wed 02:40:16 PM 40.3164 -85.7606 127° Southeast 197 227 12,800 1,548 Climbing Indianapolis Center
Wed 02:41:18 PM 40.2819 -85.7011 127° Southeast 202 232 14,300 1,355 Climbing Indianapolis Center
Wed 02:42:20 PM 40.2481 -85.6428 127° Southeast 201 231 15,600 1,258 Climbing Indianapolis Center
Wed 02:43:22 PM 40.2158 -85.5853 126° Southeast 198 228 16,900 1,161 Climbing Indianapolis Center
Wed 02:44:24 PM 40.1803 -85.5269 129° Southeast 203 234 18,000 919 Climbing Indianapolis Center
Wed 02:45:26 PM 40.1456 -85.4667 127° Southeast 208 239 18,800 1,016 Climbing Indianapolis Center
Wed 02:46:28 PM 40.1047 -85.3958 127° Southeast 205 236 20,100 1,016 Climbing Indianapolis Center
Wed 02:47:30 PM 40.0694 -85.3344 127° Southeast 210 242 20,900 387 Climbing Indianapolis Center
Wed 02:48:32 PM 40.0269 -85.2633 128° Southeast 238 274 20,900  Level Indianapolis Center
Wed 02:49:34 PM 39.9814 -85.1839 127° Southeast 265 305 20,900  Level Indianapolis Center
Wed 02:50:36 PM 39.9325 -85.1047 129° Southeast 277 319 20,900  Level Indianapolis Center
Wed 02:51:38 PM 39.8861 -85.0250 127° Southeast 277 319 20,900  Level Indianapolis Center
Wed 02:52:40 PM 39.8289 -84.9286 128° Southeast 280 322 20,900  Level Indianapolis Center
Wed 02:53:42 PM 39.7817 -84.8494 128° Southeast 276 318 20,900  Level Indianapolis Center
Wed 02:54:44 PM 39.7339 -84.7697 128° Southeast 277 319 20,900  Level Indianapolis Center
Wed 02:55:46 PM 39.6867 -84.6897 127° Southeast 278 320 20,900  Level Indianapolis Center
Wed 02:56:48 PM 39.6386 -84.6108 128° Southeast 277 319 20,900  Level Indianapolis Center
Wed 02:57:50 PM 39.5906 -84.5311 128° Southeast 279 321 20,900  Level Indianapolis Center
Wed 02:58:52 PM 39.5358 -84.4392 128° Southeast 276 318 20,900  Level Indianapolis Center
Wed 02:59:55 PM 39.4881 -84.3600 128° Southeast 277 319 20,900  Level Indianapolis Center
Wed 03:00:57 PM 39.4397 -84.2811 128° Southeast 279 321 20,900  Level Indianapolis Center
Wed 03:01:59 PM 39.3919 -84.2028 128° Southeast 278 320 20,900  Level Indianapolis Center
Wed 03:03:01 PM 39.3453 -84.1256 128° Southeast 273 314 20,900  Level Indianapolis Center
Wed 03:04:03 PM 39.2975 -84.0472 128° Southeast 275 316 20,900  Level Indianapolis Center
Wed 03:05:05 PM 39.2419 -83.9581 129° Southeast 273 314 20,900  Level Indianapolis Center
Wed 03:06:07 PM 39.1953 -83.8808 128° Southeast 272 313 20,900  Level Indianapolis Center
Wed 03:07:09 PM 39.1478 -83.8042 129° Southeast 272 313 20,900 -145 Level Indianapolis Center
Wed 03:08:11 PM 39.0994 -83.7272 129° Southeast 276 318 20,600 -919 Descending Indianapolis Center
Wed 03:09:13 PM 39.0364 -83.6553 138° Southeast 299 344 19,000 -1,355 Descending Indianapolis Center
Wed 03:10:15 PM 38.9731 -83.5753 136° Southeast 313 360 17,800 -1,355 Descending Indianapolis Center
Wed 03:11:17 PM 38.9122 -83.4942 134° Southeast 313 360 16,200 -1,694 Descending Indianapolis Center
Wed 03:12:19 PM 38.8408 -83.3992 134° Southeast 316 364 14,300 -1,694 Descending Indianapolis Center
Wed 03:13:21 PM 38.7806 -83.3217 135° Southeast 309 356 12,700 -1,500 Descending Indianapolis Center
Wed 03:14:23 PM 38.7194 -83.2553 140° Southeast 294 338 11,200 -823 Descending Indianapolis Center
Wed 03:15:25 PM 38.6722 -83.1822 130° Southeast 271 312 11,000 -677 Descending Indianapolis Center
Wed 03:16:27 PM 38.6356 -83.1022 120° Southeast 260 299 9,800 -1,500 Descending Indianapolis Center
Wed 03:17:29 PM 38.5853 -83.0025 123° Southeast 281 323 7,900 -1,680 Descending Indianapolis Center
Wed 03:18:32 PM 38.5453 -82.9189 121° Southeast 277 319 6,300 -1,536 Descending Indianapolis Center
Wed 03:19:34 PM 38.5056 -82.8375 122° Southeast 269 310 4,700 -1,161 Descending Indianapolis Center
Wed 03:20:36 PM 38.4681 -82.7636 123° Southeast 253 291 3,900 -774 Descending Indianapolis Center
Wed 03:21:38 PM 38.4286 -82.6986 128° Southeast 238 274 3,100 -581 Descending Indianapolis Center
Wed 03:22:40 PM 38.3906 -82.6347 127° Southeast 219 252 2,700 -871 Descending Indianapolis Center
Wed 03:23:42 PM 38.3794 -82.5944 109° East 176 203 1,300 -1,355 Descending Indianapolis Center
Wed 03:25:00 PM 38.3685 -82.5604 113° Southeast  Level Estimated
Wed 03:32:00 PM 38.3685 -82.5604 113° Southeast  Level Estimated

Login

Don't have an account? Register now (free) for customized features, flight alerts, and more!